createdAt,value
2017-05-07T00:00:06.699Z,999.96
2017-05-07T00:00:47.206Z,999.96
2017-05-07T00:01:27.684Z,999.92
2017-05-07T00:02:08.838Z,999.96
2017-05-07T00:02:49.303Z,999.97
2017-05-07T00:03:29.805Z,999.92
2017-05-07T00:04:10.267Z,999.97
2017-05-07T00:04:50.755Z,999.93
2017-05-07T00:05:31.235Z,999.94
2017-05-07T00:06:11.717Z,999.98
2017-05-07T00:06:52.196Z,999.94
2017-05-07T00:07:32.656Z,999.95
2017-05-07T00:08:13.067Z,999.93
2017-05-07T00:08:53.532Z,999.93
2017-05-07T00:09:33.971Z,999.89
2017-05-07T00:10:14.428Z,999.93
2017-05-07T00:10:54.892Z,999.92
2017-05-07T00:11:35.352Z,999.93
2017-05-07T00:12:15.798Z,999.96
2017-05-07T00:12:56.330Z,999.95
2017-05-07T00:13:36.728Z,999.97
2017-05-07T00:14:17.188Z,999.94
2017-05-07T00:14:57.658Z,999.98
2017-05-07T00:15:38.105Z,999.94
2017-05-07T00:16:18.559Z,999.92
2017-05-07T00:16:59.779Z,999.95
2017-05-07T00:18:52.904Z,999.91
2017-05-07T00:19:33.373Z,999.96
2017-05-07T00:20:13.854Z,999.95
2017-05-07T00:20:54.334Z,999.96
2017-05-07T00:21:34.829Z,999.95
2017-05-07T00:22:15.331Z,999.97
2017-05-07T00:22:55.770Z,999.97
2017-05-07T00:23:36.242Z,1000
2017-05-07T00:24:16.730Z,999.98
2017-05-07T00:24:57.201Z,1000.02
2017-05-07T00:25:37.715Z,1000.01
2017-05-07T00:26:18.220Z,999.99
2017-05-07T00:26:58.718Z,999.98
2017-05-07T00:27:39.221Z,1000
2017-05-07T00:28:19.696Z,999.97
2017-05-07T00:29:00.177Z,1000
2017-05-07T00:29:40.672Z,1000.01
2017-05-07T00:30:21.167Z,1000.03
2017-05-07T00:31:01.595Z,1000.01
2017-05-07T00:31:42.065Z,1000.01
2017-05-07T00:32:22.507Z,1000.01
2017-05-07T00:33:03.019Z,999.99
2017-05-07T00:33:43.455Z,1000.04
2017-05-07T00:34:23.908Z,1000.04
2017-05-07T00:35:04.345Z,1000.04
2017-05-07T00:35:44.777Z,1000.02
2017-05-07T00:38:12.778Z,1000.1
2017-05-07T00:38:53.193Z,1000.02
2017-05-07T00:39:33.668Z,1000.01
2017-05-07T00:40:14.133Z,1000.01
2017-05-07T00:40:54.621Z,1000.03
2017-05-07T00:41:35.117Z,1000.05
2017-05-07T00:42:15.577Z,1000
2017-05-07T00:42:56.063Z,1000.01
2017-05-07T00:43:36.551Z,1000.03
2017-05-07T00:44:17.012Z,1000.04
2017-05-07T00:44:57.516Z,999.99
2017-05-07T00:45:37.988Z,1000.02
2017-05-07T00:46:18.460Z,999.99
2017-05-07T00:46:58.937Z,999.97
2017-05-07T00:47:39.403Z,1000.01
2017-05-07T00:48:19.882Z,1000.02
2017-05-07T00:49:00.369Z,999.96
2017-05-07T00:49:40.829Z,999.99
2017-05-07T00:50:21.307Z,1000
2017-05-07T00:51:01.787Z,999.97
2017-05-07T00:51:42.262Z,999.94
2017-05-07T00:52:22.752Z,999.99
2017-05-07T00:53:03.186Z,999.99
2017-05-07T00:53:43.652Z,1000
2017-05-07T00:54:24.107Z,999.96
2017-05-07T00:55:04.539Z,999.99
2017-05-07T00:55:44.982Z,1000.01
2017-05-07T00:56:26.171Z,1000.02
2017-05-07T00:57:07.413Z,1000
2017-05-07T00:57:47.867Z,1000.02
2017-05-07T00:58:28.314Z,1000.05
2017-05-07T00:59:08.793Z,1000.08
2017-05-07T00:59:49.241Z,1000.05
2017-05-07T01:01:46.844Z,1000.06
2017-05-07T01:02:27.336Z,1000.09
2017-05-07T01:03:07.811Z,1000.05
2017-05-07T01:03:48.296Z,1000.08
2017-05-07T01:04:28.803Z,1000.09
2017-05-07T01:05:09.256Z,1000.08
2017-05-07T01:05:49.745Z,1000.07
2017-05-07T01:06:30.234Z,1000.07
2017-05-07T01:07:10.724Z,1000.09
2017-05-07T01:07:51.220Z,1000.11
2017-05-07T01:08:31.708Z,1000.09
2017-05-07T01:09:12.186Z,1000.12
2017-05-07T01:09:52.673Z,1000.09
2017-05-07T01:10:33.135Z,1000.1
2017-05-07T01:11:13.712Z,1000.08
2017-05-07T01:11:54.174Z,1000.13
2017-05-07T01:12:34.653Z,1000.08
2017-05-07T01:13:15.118Z,1000.14
2017-05-07T01:13:55.546Z,1000.1
2017-05-07T01:14:36.002Z,1000.11
2017-05-07T01:15:16.496Z,1000.1
2017-05-07T01:15:57.725Z,1000.14
2017-05-07T01:16:38.172Z,1000.1
2017-05-07T01:17:18.638Z,1000.08
2017-05-07T01:17:59.105Z,1000.09
2017-05-07T01:18:39.595Z,1000.1
2017-05-07T01:19:20.090Z,1000.12
2017-05-07T01:20:00.614Z,1000.07
2017-05-07T01:20:41.078Z,1000.09
2017-05-07T01:21:21.541Z,1000.11
2017-05-07T01:23:49.466Z,1000.17
2017-05-07T01:24:29.981Z,1000.13
2017-05-07T01:25:10.412Z,1000.19
2017-05-07T01:25:50.906Z,1000.15
2017-05-07T01:26:31.378Z,1000.14
2017-05-07T01:27:11.886Z,1000.11
2017-05-07T01:27:52.390Z,1000.17
2017-05-07T01:28:32.862Z,1000.22
2017-05-07T01:29:13.359Z,1000.21
2017-05-07T01:29:53.820Z,1000.16
2017-05-07T01:30:34.317Z,1000.18
2017-05-07T01:31:14.789Z,1000.19
2017-05-07T01:31:55.299Z,1000.18
2017-05-07T01:32:35.818Z,1000.21
2017-05-07T01:33:16.316Z,1000.17
2017-05-07T01:33:56.790Z,1000.18
2017-05-07T01:34:37.282Z,1000.2
2017-05-07T01:35:17.734Z,1000.14
2017-05-07T01:35:58.204Z,1000.19
2017-05-07T01:36:38.664Z,1000.23
2017-05-07T01:39:06.675Z,1000.23
2017-05-07T01:39:47.994Z,1000.23
2017-05-07T01:40:28.440Z,1000.19
2017-05-07T01:41:08.990Z,1000.25
2017-05-07T01:41:50.198Z,1000.24
2017-05-07T01:42:30.636Z,1000.22
2017-05-07T01:43:11.072Z,1000.3
2017-05-07T01:43:52.331Z,1000.19
2017-05-07T01:44:32.783Z,1000.23
2017-05-07T01:45:13.298Z,1000.23
2017-05-07T01:45:53.750Z,1000.28
2017-05-07T01:46:34.211Z,1000.31
2017-05-07T01:47:14.650Z,1000.29
2017-05-07T01:49:07.188Z,1000.26
2017-05-07T01:49:47.649Z,1000.26
2017-05-07T01:50:28.113Z,1000.26
2017-05-07T01:51:08.572Z,1000.29
2017-05-07T01:51:49.068Z,1000.23
2017-05-07T01:52:29.533Z,1000.27
2017-05-07T01:53:10.015Z,1000.23
2017-05-07T01:53:51.101Z,1000.21
2017-05-07T01:54:31.572Z,1000.26
2017-05-07T01:55:12.030Z,1000.26
2017-05-07T01:55:52.484Z,1000.24
2017-05-07T01:56:32.938Z,1000.26
2017-05-07T01:57:13.396Z,1000.23
2017-05-07T01:57:53.869Z,1000.22
2017-05-07T01:58:34.990Z,1000.22
2017-05-07T01:59:15.439Z,1000.18
2017-05-07T02:01:07.999Z,1000.17
2017-05-07T02:01:48.482Z,1000.22
2017-05-07T02:02:28.977Z,1000.22
2017-05-07T02:03:09.475Z,1000.2
2017-05-07T02:03:49.961Z,1000.21
2017-05-07T02:06:02.675Z,1000.19
2017-05-07T02:06:43.183Z,1000.19
2017-05-07T02:07:23.637Z,1000.16
2017-05-07T02:08:05.070Z,1000.14
2017-05-07T02:08:45.549Z,1000.18
2017-05-07T02:09:26.035Z,1000.2
2017-05-07T02:10:06.568Z,1000.2
2017-05-07T02:10:47.888Z,1000.2
2017-05-07T02:11:28.344Z,1000.22
2017-05-07T02:12:08.809Z,1000.21
2017-05-07T02:12:49.299Z,1000.21
2017-05-07T02:13:29.779Z,1000.22
2017-05-07T02:14:10.226Z,1000.22
2017-05-07T02:14:50.680Z,1000.21
2017-05-07T02:15:31.140Z,1000.18
2017-05-07T02:16:11.614Z,1000.22
2017-05-07T02:16:52.087Z,1000.2
2017-05-07T02:17:32.532Z,1000.24
2017-05-07T02:18:12.980Z,1000.19
2017-05-07T02:18:53.437Z,1000.18
2017-05-07T02:19:33.906Z,1000.22
2017-05-07T02:20:14.356Z,1000.2
2017-05-07T02:20:54.821Z,1000.2
2017-05-07T02:21:35.273Z,1000.18
2017-05-07T02:22:15.732Z,1000.21
2017-05-07T02:22:56.204Z,1000.17
2017-05-07T02:23:36.657Z,1000.19
2017-05-07T02:24:17.114Z,1000.2
2017-05-07T02:24:57.552Z,1000.2
2017-05-07T02:25:38.011Z,1000.2
2017-05-07T02:26:18.473Z,1000.22
2017-05-07T02:26:58.938Z,1000.21
2017-05-07T02:27:39.449Z,1000.24
2017-05-07T02:28:19.922Z,1000.25
2017-05-07T02:30:32.879Z,1000.24
2017-05-07T02:31:13.298Z,1000.28
2017-05-07T02:31:53.745Z,1000.26
2017-05-07T02:32:34.273Z,1000.21
2017-05-07T02:33:14.725Z,1000.27
2017-05-07T02:33:55.187Z,1000.24
2017-05-07T02:36:08.455Z,1000.3
2017-05-07T02:36:48.949Z,1000.22
2017-05-07T02:37:29.441Z,1000.27
2017-05-07T02:38:09.924Z,1000.23
2017-05-07T02:38:50.388Z,1000.23
2017-05-07T02:39:30.931Z,1000.23
2017-05-07T02:40:11.401Z,1000.24
2017-05-07T02:40:51.864Z,1000.21
2017-05-07T02:41:32.306Z,1000.23
2017-05-07T02:43:24.882Z,1000.27
2017-05-07T02:44:05.351Z,1000.25
2017-05-07T02:44:45.839Z,1000.27
2017-05-07T02:45:26.344Z,1000.23
2017-05-07T02:46:06.775Z,1000.27
2017-05-07T02:46:47.226Z,1000.26
2017-05-07T02:47:27.677Z,1000.29
2017-05-07T02:48:08.161Z,1000.24
2017-05-07T02:48:48.623Z,1000.28
2017-05-07T02:49:29.102Z,1000.28
2017-05-07T02:50:09.539Z,1000.27
2017-05-07T02:50:50.796Z,1000.24
2017-05-07T02:51:31.242Z,1000.23
2017-05-07T02:52:11.699Z,1000.2
2017-05-07T02:52:52.122Z,1000.23
2017-05-07T02:53:32.564Z,1000.25
2017-05-07T02:54:13.025Z,1000.25
2017-05-07T02:54:53.547Z,1000.25
2017-05-07T02:55:34.016Z,1000.24
2017-05-07T02:56:14.451Z,1000.24
2017-05-07T02:56:54.907Z,1000.26
2017-05-07T02:57:35.367Z,1000.28
2017-05-07T02:58:16.429Z,1000.32
2017-05-07T02:58:56.914Z,1000.26
2017-05-07T02:59:37.355Z,1000.27
2017-05-07T03:00:17.811Z,1000.28
2017-05-07T03:00:58.271Z,1000.33
2017-05-07T03:03:11.016Z,1000.31
2017-05-07T03:03:51.519Z,1000.3
2017-05-07T03:04:31.993Z,1000.29
2017-05-07T03:06:44.711Z,1000.27
2017-05-07T03:07:25.212Z,1000.31
2017-05-07T03:08:05.704Z,1000.29
2017-05-07T03:08:46.151Z,1000.33
2017-05-07T03:09:26.629Z,1000.28
2017-05-07T03:10:07.099Z,1000.33
2017-05-07T03:10:47.580Z,1000.29
2017-05-07T03:11:28.033Z,1000.32
2017-05-07T03:12:08.494Z,1000.28
2017-05-07T03:12:48.963Z,1000.34
2017-05-07T03:13:29.405Z,1000.35
2017-05-07T03:14:09.829Z,1000.31
2017-05-07T03:14:50.286Z,1000.32
2017-05-07T03:15:30.715Z,1000.34
2017-05-07T03:16:11.173Z,1000.28
2017-05-07T03:16:51.605Z,1000.31
2017-05-07T03:17:32.067Z,1000.28
2017-05-07T03:18:12.530Z,1000.29
2017-05-07T03:18:52.992Z,1000.31
2017-05-07T03:19:33.437Z,1000.3
2017-05-07T03:20:13.921Z,1000.31
2017-05-07T03:20:54.377Z,1000.3
2017-05-07T03:21:34.810Z,1000.29
2017-05-07T03:22:15.255Z,1000.32
2017-05-07T03:22:55.711Z,1000.32
2017-05-07T03:23:36.184Z,1000.34
2017-05-07T03:24:16.638Z,1000.31
2017-05-07T03:26:09.190Z,1000.3
2017-05-07T03:26:49.662Z,1000.3
2017-05-07T03:27:30.125Z,1000.3
2017-05-07T03:28:10.603Z,1000.31
2017-05-07T03:28:51.036Z,1000.33
2017-05-07T03:29:32.473Z,1000.32
2017-05-07T03:30:12.977Z,1000.33
2017-05-07T03:30:53.429Z,1000.3
2017-05-07T03:31:33.904Z,1000.32
2017-05-07T03:32:14.355Z,1000.33
2017-05-07T03:32:54.810Z,1000.3
2017-05-07T03:33:35.243Z,1000.31
2017-05-07T03:34:15.693Z,1000.34
2017-05-07T03:34:56.149Z,1000.3
2017-05-07T03:35:36.638Z,1000.26
2017-05-07T03:36:17.092Z,1000.28
2017-05-07T03:36:57.533Z,1000.29
2017-05-07T03:37:37.983Z,1000.28
2017-05-07T03:38:18.476Z,1000.29
2017-05-07T03:38:59.477Z,1000.31
2017-05-07T03:39:39.917Z,1000.36
2017-05-07T03:40:20.377Z,1000.29
2017-05-07T03:41:00.824Z,1000.32
2017-05-07T03:41:41.287Z,1000.32
2017-05-07T03:42:21.739Z,1000.31
2017-05-07T03:43:02.190Z,1000.3
2017-05-07T03:43:42.681Z,1000.35
2017-05-07T03:44:23.114Z,1000.32
2017-05-07T03:45:04.485Z,1000.33
2017-05-07T03:45:44.982Z,1000.32
2017-05-07T03:46:25.435Z,1000.31
2017-05-07T03:47:05.922Z,1000.32
2017-05-07T03:47:46.379Z,1000.3
2017-05-07T03:48:26.859Z,1000.32
2017-05-07T03:49:07.285Z,1000.31
2017-05-07T03:49:47.695Z,1000.28
2017-05-07T03:50:28.152Z,1000.32
2017-05-07T03:51:08.614Z,1000.34
2017-05-07T03:51:49.101Z,1000.29
2017-05-07T03:52:29.535Z,1000.3
2017-05-07T03:53:09.995Z,1000.29
2017-05-07T03:53:51.065Z,1000.33
2017-05-07T03:54:31.690Z,1000.35
2017-05-07T03:58:11.659Z,1000.33
2017-05-07T03:58:52.178Z,1000.32
2017-05-07T03:59:32.658Z,1000.27
2017-05-07T04:00:13.174Z,1000.37
2017-05-07T04:00:53.674Z,1000.31
2017-05-07T04:01:34.158Z,1000.32
2017-05-07T04:02:14.659Z,1000.34
2017-05-07T04:02:55.151Z,1000.26
2017-05-07T04:03:35.635Z,1000.33
2017-05-07T04:04:16.088Z,1000.36
2017-05-07T04:04:56.569Z,1000.33
2017-05-07T04:05:37.044Z,1000.35
2017-05-07T04:06:17.545Z,1000.36
2017-05-07T04:06:58.003Z,1000.37
2017-05-07T04:07:38.443Z,1000.33
2017-05-07T04:08:18.909Z,1000.39
2017-05-07T04:08:59.372Z,1000.39
2017-05-07T04:09:39.828Z,1000.41
2017-05-07T04:10:20.295Z,1000.36
2017-05-07T04:11:00.735Z,1000.31
2017-05-07T04:11:41.177Z,1000.36
2017-05-07T04:12:21.620Z,1000.37
2017-05-07T04:13:02.072Z,1000.36
2017-05-07T04:13:42.486Z,1000.38
2017-05-07T04:14:22.946Z,1000.37
2017-05-07T04:15:03.387Z,1000.4
2017-05-07T04:15:43.843Z,1000.43
2017-05-07T04:16:24.280Z,1000.42
2017-05-07T04:17:04.752Z,1000.35
2017-05-07T04:17:45.194Z,1000.34
2017-05-07T04:18:25.665Z,1000.38
2017-05-07T04:19:06.111Z,1000.36
2017-05-07T04:19:46.547Z,1000.39
2017-05-07T04:20:27.019Z,1000.42
2017-05-07T04:21:07.469Z,1000.37
2017-05-07T04:21:47.921Z,1000.39
2017-05-07T04:22:28.543Z,1000.46
2017-05-07T04:23:08.985Z,1000.41
2017-05-07T04:23:49.464Z,1000.41
2017-05-07T04:24:29.901Z,1000.38
2017-05-07T04:25:10.341Z,1000.42
2017-05-07T04:25:50.797Z,1000.39
2017-05-07T04:26:31.279Z,1000.39
2017-05-07T04:27:11.745Z,1000.41
2017-05-07T04:27:52.183Z,1000.39
2017-05-07T04:28:32.647Z,1000.39
2017-05-07T04:29:13.087Z,1000.41
2017-05-07T04:29:53.545Z,1000.41
2017-05-07T04:30:33.999Z,1000.44
2017-05-07T04:32:26.571Z,1000.46
2017-05-07T04:33:07.046Z,1000.44
2017-05-07T04:34:59.945Z,1000.46
2017-05-07T04:35:40.052Z,1000.45
2017-05-07T04:36:20.525Z,1000.46
2017-05-07T04:37:00.997Z,1000.5
2017-05-07T04:37:41.442Z,1000.46
2017-05-07T04:38:21.912Z,1000.48
2017-05-07T04:39:02.418Z,1000.47
2017-05-07T04:39:42.924Z,1000.49
2017-05-07T04:40:23.350Z,1000.56
2017-05-07T04:41:03.773Z,1000.52
2017-05-07T04:41:44.203Z,1000.51
2017-05-07T04:42:24.758Z,1000.51
2017-05-07T04:44:17.453Z,1000.55
2017-05-07T04:44:57.940Z,1000.55
2017-05-07T04:45:38.407Z,1000.57
2017-05-07T04:46:18.898Z,1000.6
2017-05-07T04:46:59.389Z,1000.57
2017-05-07T04:47:39.869Z,1000.6
2017-05-07T04:49:52.678Z,1000.58
2017-05-07T04:50:33.184Z,1000.63
2017-05-07T04:51:13.651Z,1000.64
2017-05-07T04:51:54.115Z,1000.59
2017-05-07T04:52:34.594Z,1000.65
2017-05-07T04:53:15.160Z,1000.62
2017-05-07T04:53:55.599Z,1000.64
2017-05-07T04:54:36.039Z,1000.65
2017-05-07T04:55:16.490Z,1000.66
2017-05-07T04:55:56.914Z,1000.65
2017-05-07T04:56:37.327Z,1000.65
2017-05-07T04:57:17.810Z,1000.65
2017-05-07T04:57:58.255Z,1000.67
2017-05-07T04:58:38.737Z,1000.64
2017-05-07T04:59:19.160Z,1000.65
2017-05-07T04:59:59.626Z,1000.72
2017-05-07T05:00:40.092Z,1000.69
2017-05-07T05:01:20.590Z,1000.73
2017-05-07T05:02:01.758Z,1000.71
2017-05-07T05:02:42.220Z,1000.68
2017-05-07T05:03:22.673Z,1000.7
2017-05-07T05:04:03.099Z,1000.76
2017-05-07T05:06:00.754Z,1000.72
2017-05-07T05:06:41.216Z,1000.74
2017-05-07T05:07:21.699Z,1000.72
2017-05-07T05:08:02.217Z,1000.79
2017-05-07T05:08:43.539Z,1000.73
2017-05-07T05:09:24.027Z,1000.75
2017-05-07T05:10:04.561Z,1000.78
2017-05-07T05:10:44.996Z,1000.79
2017-05-07T05:11:25.481Z,1000.78
2017-05-07T05:12:06.532Z,1000.76
2017-05-07T05:12:47.013Z,1000.74
2017-05-07T05:13:27.505Z,1000.76
2017-05-07T05:14:08.004Z,1000.74
2017-05-07T05:14:48.485Z,1000.77
2017-05-07T05:15:29.683Z,1000.77
2017-05-07T05:16:10.181Z,1000.77
2017-05-07T05:16:50.646Z,1000.78
2017-05-07T05:18:43.201Z,1000.8
2017-05-07T05:19:23.737Z,1000.84
2017-05-07T05:21:16.265Z,1000.78
2017-05-07T05:21:56.814Z,1000.82
2017-05-07T05:22:37.229Z,1000.85
2017-05-07T05:23:17.773Z,1000.81
2017-05-07T05:23:58.248Z,1000.84
2017-05-07T05:24:38.775Z,1000.91
2017-05-07T05:25:19.286Z,1000.8
2017-05-07T05:25:59.734Z,1000.86
2017-05-07T05:26:40.339Z,1000.9
2017-05-07T05:27:20.812Z,1000.84
2017-05-07T05:28:01.273Z,1000.96
2017-05-07T05:28:41.743Z,1000.9
2017-05-07T05:29:22.213Z,1000.91
2017-05-07T05:30:02.664Z,1000.93
2017-05-07T05:30:43.099Z,1000.94
2017-05-07T05:31:23.534Z,1000.87
2017-05-07T05:32:03.977Z,1000.94
2017-05-07T05:32:44.431Z,1000.95
2017-05-07T05:33:24.883Z,1000.94
2017-05-07T05:34:05.355Z,1000.91
2017-05-07T05:34:45.808Z,1000.99
2017-05-07T05:35:26.286Z,1001.03
2017-05-07T05:36:06.760Z,1001.06
2017-05-07T05:36:47.200Z,1001.03
2017-05-07T05:37:27.707Z,1001.04
2017-05-07T05:38:08.139Z,1001.06
2017-05-07T05:38:48.618Z,1001.07
2017-05-07T05:39:29.066Z,1001.11
2017-05-07T05:40:09.534Z,1001.09
2017-05-07T05:40:49.975Z,1001.04
2017-05-07T05:41:30.510Z,1001.04
2017-05-07T05:42:10.997Z,1001.04
2017-05-07T05:42:51.444Z,1001.1
2017-05-07T05:43:31.941Z,1001.03
2017-05-07T05:44:12.368Z,1001.08
2017-05-07T05:44:52.796Z,1001.09
2017-05-07T05:45:33.250Z,1001.09
2017-05-07T05:47:45.943Z,1001.09
2017-05-07T05:48:26.430Z,1001.08
2017-05-07T05:49:06.924Z,1001.12
2017-05-07T05:49:47.408Z,1001.13
2017-05-07T05:50:27.860Z,1001.1
2017-05-07T05:51:08.316Z,1001.09
2017-05-07T05:51:49.365Z,1001.13
2017-05-07T05:52:29.795Z,1001.15
2017-05-07T05:54:47.683Z,1001.1
2017-05-07T05:55:28.137Z,1001.1
2017-05-07T05:57:56.046Z,1001.11
2017-05-07T05:58:36.533Z,1001.08
2017-05-07T05:59:17.009Z,1001.11
2017-05-07T05:59:57.478Z,1001.12
2017-05-07T06:00:37.970Z,1001.13
2017-05-07T06:01:18.421Z,1001.13
2017-05-07T06:01:58.879Z,1001.14
2017-05-07T06:02:39.351Z,1001.14
2017-05-07T06:03:19.835Z,1001.15
2017-05-07T06:04:00.284Z,1001.17
2017-05-07T06:04:40.724Z,1001.17
2017-05-07T06:05:21.216Z,1001.12
2017-05-07T06:06:02.242Z,1001.13
2017-05-07T06:06:42.715Z,1001.16
2017-05-07T06:07:23.126Z,1001.14
2017-05-07T06:08:03.543Z,1001.18
2017-05-07T06:08:43.990Z,1001.16
2017-05-07T06:09:24.427Z,1001.19
2017-05-07T06:10:04.901Z,1001.19
2017-05-07T06:10:45.374Z,1001.17
2017-05-07T06:11:25.807Z,1001.25
2017-05-07T06:12:06.250Z,1001.23
2017-05-07T06:12:46.687Z,1001.22
2017-05-07T06:13:27.117Z,1001.22
2017-05-07T06:14:07.582Z,1001.17
2017-05-07T06:14:48.043Z,1001.19
2017-05-07T06:15:28.496Z,1001.26
2017-05-07T06:16:08.941Z,1001.24
2017-05-07T06:16:49.399Z,1001.21
2017-05-07T06:17:29.838Z,1001.24
2017-05-07T06:18:10.327Z,1001.25
2017-05-07T06:18:50.795Z,1001.28
2017-05-07T06:19:31.250Z,1001.24
2017-05-07T06:21:49.069Z,1001.25
2017-05-07T06:22:29.542Z,1001.23
2017-05-07T06:23:10.034Z,1001.24
2017-05-07T06:23:50.541Z,1001.29
2017-05-07T06:24:31.014Z,1001.29
2017-05-07T06:25:11.503Z,1001.32
2017-05-07T06:25:51.996Z,1001.27
2017-05-07T06:26:32.445Z,1001.28
2017-05-07T06:27:12.874Z,1001.29
2017-05-07T06:27:53.332Z,1001.29
2017-05-07T06:28:33.814Z,1001.33
2017-05-07T06:29:14.298Z,1001.38
2017-05-07T06:29:54.779Z,1001.35
2017-05-07T06:30:35.674Z,1001.34
2017-05-07T06:31:16.536Z,1001.34
2017-05-07T06:31:57.230Z,1001.37
2017-05-07T06:32:38.110Z,1001.35
2017-05-07T06:33:19.130Z,1001.33
2017-05-07T06:33:59.879Z,1001.34
2017-05-07T06:34:40.536Z,1001.33
2017-05-07T06:35:21.314Z,1001.35
2017-05-07T06:36:02.424Z,1001.36
2017-05-07T06:36:42.837Z,1001.41
2017-05-07T06:37:23.259Z,1001.36
2017-05-07T06:38:03.665Z,1001.36
2017-05-07T06:38:44.127Z,1001.38
2017-05-07T06:39:24.565Z,1001.41
2017-05-07T06:40:05.020Z,1001.41
2017-05-07T06:40:45.432Z,1001.43
2017-05-07T06:41:25.898Z,1001.4
2017-05-07T06:42:06.341Z,1001.4
2017-05-07T06:42:46.774Z,1001.43
2017-05-07T06:43:27.210Z,1001.46
2017-05-07T06:44:07.642Z,1001.44
2017-05-07T06:44:48.140Z,1001.44
2017-05-07T06:45:28.561Z,1001.45
2017-05-07T06:46:09.118Z,1001.47
2017-05-07T06:46:49.592Z,1001.53
2017-05-07T06:47:30.070Z,1001.5
2017-05-07T06:48:10.531Z,1001.54
2017-05-07T06:48:50.971Z,1001.54
2017-05-07T06:49:31.426Z,1001.54
2017-05-07T06:50:11.887Z,1001.52
2017-05-07T06:50:52.350Z,1001.54
2017-05-07T06:51:32.802Z,1001.52
2017-05-07T06:52:13.298Z,1001.56
2017-05-07T06:52:53.745Z,1001.55
2017-05-07T06:53:34.197Z,1001.55
2017-05-07T06:54:14.634Z,1001.58
2017-05-07T06:54:55.068Z,1001.59
2017-05-07T06:55:35.492Z,1001.61
2017-05-07T06:56:15.957Z,1001.57
2017-05-07T06:56:56.391Z,1001.61
2017-05-07T06:57:36.851Z,1001.53
2017-05-07T06:58:17.293Z,1001.59
2017-05-07T06:58:57.765Z,1001.56
2017-05-07T06:59:38.220Z,1001.61
2017-05-07T07:00:18.671Z,1001.56
2017-05-07T07:00:59.131Z,1001.62
2017-05-07T07:01:39.579Z,1001.6
2017-05-07T07:02:20.031Z,1001.61
2017-05-07T07:03:00.493Z,1001.65
2017-05-07T07:03:40.970Z,1001.65
2017-05-07T07:04:21.424Z,1001.61
2017-05-07T07:05:02.439Z,1001.61
2017-05-07T07:05:42.882Z,1001.66
2017-05-07T07:06:23.307Z,1001.66
2017-05-07T07:07:03.780Z,1001.69
2017-05-07T07:07:45.025Z,1001.65
2017-05-07T07:08:25.467Z,1001.63
2017-05-07T07:09:05.920Z,1001.64
2017-05-07T07:09:46.367Z,1001.68
2017-05-07T07:10:26.788Z,1001.68
2017-05-07T07:11:07.235Z,1001.69
2017-05-07T07:11:47.671Z,1001.68
2017-05-07T07:12:28.110Z,1001.69
2017-05-07T07:13:08.585Z,1001.71
2017-05-07T07:13:49.061Z,1001.74
2017-05-07T07:14:29.609Z,1001.71
2017-05-07T07:15:10.093Z,1001.76
2017-05-07T07:15:50.556Z,1001.79
2017-05-07T07:16:30.989Z,1001.77
2017-05-07T07:17:11.471Z,1001.77
2017-05-07T07:17:51.926Z,1001.77
2017-05-07T07:18:32.382Z,1001.8
2017-05-07T07:19:13.492Z,1001.77
2017-05-07T07:19:53.944Z,1001.77
2017-05-07T07:20:34.393Z,1001.78
2017-05-07T07:21:14.845Z,1001.82
2017-05-07T07:21:55.320Z,1001.87
2017-05-07T07:22:35.760Z,1001.82
2017-05-07T07:23:16.204Z,1001.82
2017-05-07T07:23:56.643Z,1001.86
2017-05-07T07:24:37.088Z,1001.84
2017-05-07T07:25:17.520Z,1001.91
2017-05-07T07:25:57.971Z,1001.85
2017-05-07T07:26:38.393Z,1001.85
2017-05-07T07:27:18.894Z,1001.91
2017-05-07T07:27:59.299Z,1001.85
2017-05-07T07:28:39.739Z,1001.88
2017-05-07T07:29:20.198Z,1001.86
2017-05-07T07:30:00.666Z,1001.85
2017-05-07T07:30:41.113Z,1001.88
2017-05-07T07:31:21.582Z,1001.9
2017-05-07T07:32:02.005Z,1001.84
2017-05-07T07:32:42.443Z,1001.9
2017-05-07T07:33:22.901Z,1001.87
2017-05-07T07:34:03.329Z,1001.88
2017-05-07T07:34:43.743Z,1001.9
2017-05-07T07:35:24.170Z,1001.89
2017-05-07T07:36:04.602Z,1001.91
2017-05-07T07:36:45.039Z,1001.96
2017-05-07T07:37:25.491Z,1001.98
2017-05-07T07:38:05.918Z,1001.95
2017-05-07T07:38:46.331Z,1001.96
2017-05-07T07:39:26.777Z,1001.94
2017-05-07T07:40:07.231Z,1002
2017-05-07T07:40:47.689Z,1001.94
2017-05-07T07:41:28.150Z,1001.95
2017-05-07T07:42:08.591Z,1002
2017-05-07T07:42:49.124Z,1001.97
2017-05-07T07:43:29.519Z,1002.03
2017-05-07T07:44:09.960Z,1002.01
2017-05-07T07:44:50.437Z,1001.99
2017-05-07T07:45:30.934Z,1001.98
2017-05-07T07:46:12.824Z,1002.01
2017-05-07T07:46:53.261Z,1002
2017-05-07T07:47:33.698Z,1002.01
2017-05-07T07:48:14.777Z,1002.05
2017-05-07T07:48:55.217Z,1002.03
2017-05-07T07:49:35.651Z,1002.03
2017-05-07T07:50:16.088Z,1002.03
2017-05-07T07:50:56.537Z,1001.99
2017-05-07T07:51:36.946Z,1002.04
2017-05-07T07:52:17.428Z,1002.01
2017-05-07T07:52:57.868Z,1002.02
2017-05-07T07:53:38.343Z,1002.01
2017-05-07T07:54:18.772Z,1002.06
2017-05-07T07:54:59.264Z,1002.05
2017-05-07T07:55:39.706Z,1002.04
2017-05-07T07:56:20.167Z,1002.05
2017-05-07T07:57:00.619Z,1002.02
2017-05-07T07:57:41.090Z,1002.04
2017-05-07T07:58:21.538Z,1002.04
2017-05-07T07:59:01.973Z,1002.06
2017-05-07T07:59:42.444Z,1002.04
2017-05-07T08:00:22.926Z,1002.05
2017-05-07T08:01:03.386Z,1002.1
2017-05-07T08:01:43.849Z,1002.06
2017-05-07T08:02:24.286Z,1002.06
2017-05-07T08:03:05.261Z,1002.03
2017-05-07T08:03:45.721Z,1002.02
2017-05-07T08:04:26.177Z,1002.11
2017-05-07T08:05:06.637Z,1002.08
2017-05-07T08:05:47.061Z,1002.12
2017-05-07T08:06:27.516Z,1002.08
2017-05-07T08:07:07.978Z,1002.1
2017-05-07T08:07:48.413Z,1002.13
2017-05-07T08:08:28.875Z,1002.1
2017-05-07T08:09:09.293Z,1002.13
2017-05-07T08:09:49.753Z,1002.17
2017-05-07T08:10:30.457Z,1002.15
2017-05-07T08:11:10.918Z,1002.17
2017-05-07T08:11:51.345Z,1002.18
2017-05-07T08:12:31.812Z,1002.18
2017-05-07T08:13:12.285Z,1002.16
2017-05-07T08:13:52.751Z,1002.17
2017-05-07T08:14:33.212Z,1002.21
2017-05-07T08:15:13.664Z,1002.22
2017-05-07T08:15:54.121Z,1002.18
2017-05-07T08:16:34.576Z,1002.25
2017-05-07T08:17:15.053Z,1002.28
2017-05-07T08:17:55.565Z,1002.27
2017-05-07T08:18:36.004Z,1002.27
2017-05-07T08:19:16.465Z,1002.26
2017-05-07T08:19:56.928Z,1002.24
2017-05-07T08:20:37.374Z,1002.22
2017-05-07T08:21:17.838Z,1002.28
2017-05-07T08:21:58.294Z,1002.27
2017-05-07T08:22:38.763Z,1002.35
2017-05-07T08:23:20.926Z,1002.27
2017-05-07T08:24:01.376Z,1002.25
2017-05-07T08:24:41.918Z,1002.32
2017-05-07T08:25:22.379Z,1002.33
2017-05-07T08:26:02.834Z,1002.34
2017-05-07T08:26:43.289Z,1002.31
2017-05-07T08:27:23.750Z,1002.34
2017-05-07T08:28:04.186Z,1002.34
2017-05-07T08:28:44.613Z,1002.29
2017-05-07T08:29:25.077Z,1002.3
2017-05-07T08:30:05.537Z,1002.29
2017-05-07T08:30:45.998Z,1002.37
2017-05-07T08:31:27.376Z,1002.36
2017-05-07T08:32:07.807Z,1002.35
2017-05-07T08:32:48.262Z,1002.35
2017-05-07T08:33:28.762Z,1002.33
2017-05-07T08:34:09.165Z,1002.32
2017-05-07T08:34:49.665Z,1002.35
2017-05-07T08:35:30.138Z,1002.39
2017-05-07T08:36:10.586Z,1002.42
2017-05-07T08:36:51.040Z,1002.37
2017-05-07T08:37:31.471Z,1002.39
2017-05-07T08:38:11.952Z,1002.41
2017-05-07T08:40:09.579Z,1002.47
2017-05-07T08:40:50.060Z,1002.46
2017-05-07T08:41:30.574Z,1002.47
2017-05-07T08:42:11.062Z,1002.52
2017-05-07T08:42:51.591Z,1002.49
2017-05-07T08:43:32.043Z,1002.5
2017-05-07T08:44:12.467Z,1002.56
2017-05-07T08:46:05.045Z,1002.52
2017-05-07T08:46:45.529Z,1002.57
2017-05-07T08:47:26.007Z,1002.62
2017-05-07T08:48:06.530Z,1002.55
2017-05-07T08:48:46.997Z,1002.6
2017-05-07T08:49:27.496Z,1002.61
2017-05-07T08:50:07.975Z,1002.64
2017-05-07T08:50:48.466Z,1002.63
2017-05-07T08:51:28.934Z,1002.62
2017-05-07T08:52:09.437Z,1002.65
2017-05-07T08:52:49.969Z,1002.63
2017-05-07T08:53:30.428Z,1002.64